This is the latest recevied weather packets stored in our database for station/object W4IFI. If no packets are shown the sender has not sent any weather packets the latest 10 day(s).
| Time | Temp. | Humidity | Pressure | Rain* | Wind** | Luminosity | Snow |
|---|---|---|---|---|---|---|---|
| 1777302903 | 3.89° C | 74% | 1013.7 hPa | 0 mm | - | - | - |
| 1777302003 | 3.89° C | 75% | 1013.7 hPa | 0 mm | - | - | - |
| 1777299603 | 2.78° C | 78% | 1013.6 hPa | 0 mm | - | - | - |
| 1777293736 | 1.67° C | 86% | 1012.5 hPa | 0 mm | - | - | - |
| 1777290003 | 1.67° C | 85% | 1011.9 hPa | 0 mm | - | - | - |
| 1777287003 | 2.22° C | 83% | 1011.9 hPa | 0 mm | - | - | - |
| 1777286103 | 2.22° C | 82% | 1011.9 hPa | 0 mm | - | - | - |
| 1777284603 | 2.22° C | 82% | 1011.7 hPa | 0 mm | - | - | - |
| 1777284303 | 2.22° C | 82% | 1011.6 hPa | 0 mm | - | - | - |
| 1777282803 | 2.78° C | 80% | 1011.4 hPa | 0 mm | - | - | - |
| 1777281003 | 2.78° C | 77% | 1011.2 hPa | 0 mm | - | - | - |
| 1777280238 | 2.78° C | 76% | 1011.1 hPa | 0 mm | - | - | - |
| 1777279038 | 3.33° C | 76% | 1011.2 hPa | 0 mm | - | - | - |
| 1777275303 | 3.33° C | 74% | 1011.3 hPa | 0 mm | - | - | - |
| 1777273503 | 3.33° C | 74% | 1011.4 hPa | 0 mm | - | - | - |
| 1777272303 | 3.33° C | 71% | 1011.2 hPa | 0 mm | - | - | - |
| 1777271103 | 3.33° C | 73% | 1010.8 hPa | 0 mm | - | - | - |
| 1777269603 | 3.33° C | 76% | 1010.5 hPa | 0 mm | - | - | - |
| 1777268703 | 3.33° C | 73% | 1010.5 hPa | 0 mm | - | - | - |
| 1777266003 | 3.89° C | 72% | 1010.1 hPa | 0 mm | - | - | - |
| 1777265103 | 3.33° C | 72% | 1010.1 hPa | 0 mm | - | - | - |
| 1777264803 | 3.89° C | 72% | 1010.1 hPa | 0 mm | - | - | - |
| 1777261038 | 4.44° C | 73% | 1009.7 hPa | 0 mm | - | - | - |
| 1777258937 | 4.44° C | 73% | 1008.9 hPa | 0 mm | - | - | - |
| 1777254003 | 6.11° C | 62% | 1007.8 hPa | 0 mm | - | - | - |
* Rain latest hour (hover to see other rain measurements)
** Current wind speed in m/s (hover to see current wind gust speed)